Time;durP1;ratioP1;P1;durP2;ratioP2;P2;SDS_P1;SDS_P2;PMS_P1;PMS_P2;Temp;Humidity;BMP_temperature;BMP_pressure;BME280_temperature;BME280_humidity;BME280_pressure;Samples;Min_cycle;Max_cycle;Signal;HPM_P1;HPM_P2
2021/05/09 00:00:21;;;;;;;70.07;37.95;;;15.20;90.70;;;;;;4897506;29;20504;-77
2021/05/09 00:02:47;;;;;;;28.70;15.80;;;15.20;90.80;;;;;;4897022;29;20484;-76
2021/05/09 00:05:13;;;;;;;2.38;2.28;;;15.20;90.80;;;;;;4897454;29;20080;-76
2021/05/09 00:07:39;;;;;;;2.65;2.08;;;15.20;91.10;;;;;;4897340;29;20060;-76
2021/05/09 00:10:08;;;;;;;1.98;1.83;;;15.10;91.30;;;;;;4897522;29;20492;-76
2021/05/09 00:12:33;;;;;;;2.22;1.55;;;15.10;91.30;;;;;;4897303;29;20060;-77
2021/05/09 00:14:59;;;;;;;0.95;0.85;;;15.10;91.40;;;;;;4897313;29;20493;-76
2021/05/09 00:17:25;;;;;;;2.85;1.05;;;15.00;91.70;;;;;;4903360;29;20500;-77
2021/05/09 00:19:51;;;;;;;1.52;1.42;;;15.00;91.70;;;;;;4916034;29;20017;-76
2021/05/09 00:22:17;;;;;;;1.98;1.00;;;14.90;91.80;;;;;;4899021;29;20071;-76
2021/05/09 00:24:42;;;;;;;1.30;1.20;;;14.80;92.10;;;;;;4915883;29;20028;-77
2021/05/09 00:27:08;;;;;;;2.35;1.10;;;14.80;92.30;;;;;;4915865;29;20034;-76
2021/05/09 00:29:34;;;;;;;1.83;1.45;;;14.70;92.40;;;;;;4915774;29;20058;-76
2021/05/09 00:32:00;;;;;;;2.72;1.15;;;14.70;92.60;;;;;;4915995;29;20039;-76
2021/05/09 00:34:25;;;;;;;0.98;0.90;;;14.70;92.70;;;;;;4915780;29;20031;-76
2021/05/09 00:36:51;;;;;;;2.80;1.00;;;14.60;92.90;;;;;;4915526;29;20016;-76
2021/05/09 00:39:17;;;;;;;2.45;1.10;;;14.70;93.30;;;;;;4898899;29;20499;-77
2021/05/09 00:41:43;;;;;;;3.40;1.15;;;14.60;93.00;;;;;;4915592;29;20028;-76
2021/05/09 00:44:08;;;;;;;0.88;0.88;;;14.60;93.10;;;;;;4915777;29;20052;-76
2021/05/09 00:46:34;;;;;;;2.60;1.40;;;14.60;93.20;;;;;;4915599;29;20064;-76
2021/05/09 00:49:02;;;;;;;1.08;0.98;;;14.60;93.10;;;;;;4915909;29;20016;-77
2021/05/09 00:51:28;;;;;;;1.35;1.30;;;14.60;93.10;;;;;;4915583;29;20115;-76
2021/05/09 00:53:56;;;;;;;2.35;1.17;;;14.60;93.10;;;;;;4915386;29;20115;-76
2021/05/09 00:56:24;;;;;;;1.23;1.13;;;14.60;93.10;;;;;;4915509;29;20039;-76
2021/05/09 00:58:53;;;;;;;1.00;1.00;;;14.60;93.20;;;;;;4932799;29;20023;-76
2021/05/09 01:01:20;;;;;;;2.47;0.98;;;14.50;93.40;;;;;;4934415;29;20035;-76
2021/05/09 01:03:46;;;;;;;2.15;1.45;;;14.50;93.60;;;;;;4934548;29;20031;-76
2021/05/09 01:06:12;;;;;;;2.67;1.00;;;14.50;93.80;;;;;;4924282;29;20036;-76
2021/05/09 01:08:38;;;;;;;0.90;0.90;;;14.40;93.90;;;;;;4915420;29;20039;-77
2021/05/09 01:11:06;;;;;;;1.13;1.05;;;14.40;94.20;;;;;;4915304;29;20392;-76
2021/05/09 01:13:33;;;;;;;1.10;1.08;;;14.30;94.20;;;;;;4914454;29;20484;-77
2021/05/09 01:16:02;;;;;;;1.20;1.05;;;14.40;94.20;;;;;;4915046;29;20107;-76
2021/05/09 01:18:29;;;;;;;1.48;1.30;;;14.40;94.30;;;;;;4915009;29;20048;-77
2021/05/09 01:20:55;;;;;;;1.27;1.17;;;14.40;94.30;;;;;;4915020;29;20027;-76
2021/05/09 01:23:21;;;;;;;1.48;1.10;;;14.50;94.30;;;;;;4915443;29;20502;-77
2021/05/09 01:25:47;;;;;;;3.92;1.20;;;14.50;94.40;;;;;;4915043;29;20556;-77
2021/05/09 01:28:13;;;;;;;1.50;1.25;;;14.50;94.30;;;;;;4915212;29;20119;-77
2021/05/09 01:30:40;;;;;;;1.95;1.15;;;14.40;94.50;;;;;;4898095;29;20032;-77
2021/05/09 01:33:06;;;;;;;4.55;1.17;;;14.50;94.50;;;;;;4915171;29;20024;-77
2021/05/09 01:35:33;;;;;;;2.20;1.30;;;14.50;94.50;;;;;;4914988;29;20083;-77
2021/05/09 01:37:59;;;;;;;0.80;0.80;;;14.50;94.50;;;;;;4915035;29;20029;-77
2021/05/09 01:40:25;;;;;;;1.33;1.20;;;14.50;94.60;;;;;;4915144;29;20396;-77
2021/05/09 01:42:51;;;;;;;1.42;1.33;;;14.50;94.80;;;;;;4914985;29;20032;-77
2021/05/09 01:45:17;;;;;;;1.27;1.20;;;14.50;94.90;;;;;;4915157;29;20021;-77
2021/05/09 01:47:43;;;;;;;1.67;1.15;;;14.50;94.90;;;;;;4914804;29;20166;-77
2021/05/09 01:50:11;;;;;;;1.35;1.25;;;14.50;95.00;;;;;;4898115;29;20166;-77
2021/05/09 01:52:37;;;;;;;2.13;1.30;;;14.40;95.20;;;;;;4914899;29;20106;-77
2021/05/09 01:55:05;;;;;;;1.65;1.30;;;14.40;95.40;;;;;;4914983;29;20480;-77
2021/05/09 01:57:31;;;;;;;3.80;1.50;;;14.40;95.40;;;;;;4897753;29;20028;-77
2021/05/09 01:59:58;;;;;;;1.40;1.30;;;14.40;95.50;;;;;;4915003;29;20027;-77
2021/05/09 02:02:24;;;;;;;3.95;1.30;;;14.30;95.70;;;;;;4914869;29;20025;-77
2021/05/09 02:04:51;;;;;;;2.80;1.40;;;14.30;95.70;;;;;;4914968;29;20408;-77
2021/05/09 02:07:18;;;;;;;4.10;1.70;;;14.30;95.90;;;;;;4914762;29;20038;-77
2021/05/09 02:09:44;;;;;;;1.40;1.30;;;14.30;95.90;;;;;;4914990;29;20032;-77
2021/05/09 02:12:10;;;;;;;3.05;1.48;;;14.30;96.20;;;;;;4914897;29;20036;-77
2021/05/09 02:14:36;;;;;;;2.17;1.30;;;14.20;96.30;;;;;;4914855;29;20028;-77
2021/05/09 02:17:02;;;;;;;2.92;1.48;;;14.20;96.50;;;;;;4914583;29;20073;-77
2021/05/09 02:19:28;;;;;;;3.90;1.83;;;14.30;96.60;;;;;;4914841;29;20083;-77
2021/05/09 02:21:54;;;;;;;2.28;1.38;;;14.30;96.70;;;;;;4914817;29;20028;-77
2021/05/09 02:24:20;;;;;;;2.58;1.55;;;14.20;96.80;;;;;;4915305;29;20032;-77
2021/05/09 02:26:46;;;;;;;4.45;1.60;;;14.20;97.00;;;;;;4918047;29;20441;-77
2021/05/09 02:29:12;;;;;;;1.40;1.30;;;14.20;97.10;;;;;;4917933;29;20502;-77
2021/05/09 02:31:38;;;;;;;4.47;1.70;;;14.10;97.40;;;;;;4918018;29;20020;-77
2021/05/09 02:34:04;;;;;;;1.75;1.40;;;14.10;97.60;;;;;;4900770;29;20036;-77
2021/05/09 02:36:30;;;;;;;3.85;2.85;;;14.10;97.70;;;;;;4917972;29;20023;-77
2021/05/09 02:38:55;;;;;;;1.45;1.35;;;14.00;97.70;;;;;;4917925;29;20111;-77
2021/05/09 02:41:21;;;;;;;3.42;1.70;;;14.00;97.90;;;;;;4900649;29;20083;-77
2021/05/09 02:43:48;;;;;;;3.70;1.80;;;14.00;98.10;;;;;;4917796;29;20484;-77
2021/05/09 02:46:14;;;;;;;3.63;1.63;;;13.90;98.20;;;;;;4917577;29;20036;-77
2021/05/09 02:48:40;;;;;;;1.88;1.60;;;13.90;98.50;;;;;;4917873;29;20024;-77
2021/05/09 02:51:06;;;;;;;1.90;1.70;;;13.90;98.60;;;;;;4900571;29;20036;-77
2021/05/09 02:53:31;;;;;;;1.88;1.77;;;13.90;98.60;;;;;;4917721;29;20024;-77
2021/05/09 02:55:58;;;;;;;1.70;1.60;;;13.90;98.80;;;;;;4917466;29;20499;-76
2021/05/09 02:58:23;;;;;;;5.72;1.92;;;13.90;98.90;;;;;;4900196;29;20043;-77
2021/05/09 03:00:49;;;;;;;1.58;1.48;;;13.90;99.10;;;;;;4900480;29;20032;-77
2021/05/09 03:03:15;;;;;;;3.72;1.85;;;13.80;99.20;;;;;;4917435;29;20024;-77
2021/05/09 03:05:40;;;;;;;2.90;1.58;;;13.80;99.30;;;;;;4919265;29;20025;-77
2021/05/09 03:08:06;;;;;;;3.85;1.92;;;13.80;99.30;;;;;;4900305;29;20410;-77
2021/05/09 03:10:33;;;;;;;2.15;1.80;;;13.90;99.50;;;;;;4917346;29;20035;-77
2021/05/09 03:12:59;;;;;;;1.60;1.48;;;13.80;99.50;;;;;;4917221;29;20032;-77
2021/05/09 03:15:25;;;;;;;2.13;1.92;;;13.80;99.70;;;;;;4916862;29;20030;-77
2021/05/09 03:17:51;;;;;;;3.13;1.92;;;13.80;99.90;;;;;;4917254;29;20044;-77
2021/05/09 03:20:17;;;;;;;3.50;1.92;;;13.80;99.90;;;;;;4917033;29;20102;-77
2021/05/09 03:22:42;;;;;;;3.75;2.22;;;13.70;99.90;;;;;;4900261;29;20032;-77
2021/05/09 03:25:09;;;;;;;3.20;2.45;;;13.70;99.90;;;;;;4917001;29;20099;-77
2021/05/09 03:27:34;;;;;;;3.90;1.75;;;13.70;99.90;;;;;;4916875;29;20076;-77
2021/05/09 03:30:00;;;;;;;2.88;1.75;;;13.70;99.90;;;;;;4917041;29;20032;-77
2021/05/09 03:32:26;;;;;;;3.20;2.15;;;13.70;99.90;;;;;;4916818;29;20100;-77
2021/05/09 03:34:51;;;;;;;1.92;1.83;;;13.70;99.90;;;;;;4916898;29;20040;-77
2021/05/09 03:37:17;;;;;;;4.38;2.00;;;13.70;99.90;;;;;;4915723;29;20112;-77
2021/05/09 03:39:43;;;;;;;2.70;2.17;;;13.70;99.90;;;;;;4916938;29;20500;-77
2021/05/09 03:42:09;;;;;;;3.10;1.83;;;13.70;99.90;;;;;;4916650;29;20024;-77
2021/05/09 03:44:34;;;;;;;5.25;2.65;;;13.70;99.90;;;;;;4899844;29;20082;-77
2021/05/09 03:47:00;;;;;;;7.03;2.30;;;13.70;99.90;;;;;;4916543;29;20020;-77
2021/05/09 03:49:26;;;;;;;2.53;2.15;;;13.70;99.90;;;;;;4916437;29;20033;-77
2021/05/09 03:51:52;;;;;;;2.08;1.83;;;13.60;99.90;;;;;;4916632;29;20024;-77
2021/05/09 03:54:17;;;;;;;1.83;1.73;;;13.70;99.90;;;;;;4916339;29;20028;-77
2021/05/09 03:56:43;;;;;;;3.08;1.75;;;13.60;99.90;;;;;;4916379;29;20071;-77
2021/05/09 03:59:09;;;;;;;2.35;1.80;;;13.70;99.90;;;;;;4916363;29;20491;-77
2021/05/09 04:01:34;;;;;;;3.15;2.03;;;13.70;99.90;;;;;;4923661;23;20194;-77
2021/05/09 04:04:00;;;;;;;1.85;1.75;;;13.70;99.90;;;;;;4916384;29;20039;-77
2021/05/09 04:06:26;;;;;;;4.60;2.42;;;13.70;99.90;;;;;;4899093;29;20028;-77
2021/05/09 04:08:51;;;;;;;2.70;2.17;;;13.70;99.90;;;;;;4916471;29;20028;-77
2021/05/09 04:11:18;;;;;;;2.30;1.85;;;13.60;99.90;;;;;;4916091;29;20024;-77
2021/05/09 04:13:49;;;;;;;2.20;2.00;;;13.60;99.90;;;;;;4916297;29;20470;-77
2021/05/09 04:16:15;;;;;;;1.88;1.77;;;13.60;99.90;;;;;;4899106;29;20047;-77
2021/05/09 04:18:40;;;;;;;2.53;1.92;;;13.60;99.90;;;;;;4916154;29;20035;-77
2021/05/09 04:21:06;;;;;;;1.90;1.80;;;13.60;99.90;;;;;;4915891;29;20107;-77
2021/05/09 04:23:32;;;;;;;2.33;2.00;;;13.60;99.90;;;;;;4916136;29;20048;-77
2021/05/09 04:25:58;;;;;;;2.25;2.05;;;13.60;99.90;;;;;;4898717;29;20512;-77
2021/05/09 04:28:24;;;;;;;3.38;1.85;;;13.50;99.90;;;;;;4916002;29;20571;-77
2021/05/09 04:30:49;;;;;;;2.42;2.20;;;13.50;99.90;;;;;;4915887;29;20070;-77
2021/05/09 04:33:16;;;;;;;3.55;2.20;;;13.50;99.90;;;;;;4915897;29;20039;-77
2021/05/09 04:35:44;;;;;;;2.53;2.33;;;13.60;99.90;;;;;;4915682;29;20034;-77
2021/05/09 04:38:10;;;;;;;2.42;2.00;;;13.60;99.90;;;;;;4915675;29;20063;-77
2021/05/09 04:40:37;;;;;;;2.30;2.10;;;13.60;99.90;;;;;;4915749;29;20369;-77
2021/05/09 04:43:11;;;;;;;2.70;2.50;;;13.70;99.90;;;;;;4915806;29;20181;-77
2021/05/09 04:45:37;;;;;;;2.60;2.17;;;13.70;99.90;;;;;;4898650;29;20056;-77
2021/05/09 04:48:04;;;;;;;2.38;2.17;;;13.70;99.90;;;;;;4898471;29;20400;-77
2021/05/09 04:50:31;;;;;;;2.90;2.70;;;13.60;99.90;;;;;;4915426;29;20079;-77
2021/05/09 04:52:57;;;;;;;7.25;2.45;;;13.50;99.90;;;;;;4898668;29;20054;-77
2021/05/09 04:55:23;;;;;;;6.50;2.40;;;13.60;99.90;;;;;;4915340;29;20459;-77
2021/05/09 04:57:48;;;;;;;5.43;2.63;;;13.60;99.90;;;;;;4915655;29;20107;-77
2021/05/09 05:00:15;;;;;;;3.90;2.60;;;13.70;99.90;;;;;;4915427;29;20506;-77
2021/05/09 05:02:45;;;;;;;2.45;2.03;;;13.70;99.90;;;;;;4915422;29;20051;-77
2021/05/09 05:05:12;;;;;;;3.25;2.22;;;13.80;99.90;;;;;;4915134;29;20195;-77
2021/05/09 05:07:38;;;;;;;2.20;2.10;;;13.80;99.90;;;;;;4913998;29;20455;-78
2021/05/09 05:10:05;;;;;;;2.05;1.95;;;13.90;99.90;;;;;;4917204;29;20157;-77
2021/05/09 05:12:31;;;;;;;2.42;2.22;;;13.90;99.90;;;;;;4934418;29;20036;-77
2021/05/09 05:14:57;;;;;;;3.35;2.25;;;13.90;99.90;;;;;;4917027;29;20023;-77
2021/05/09 05:17:22;;;;;;;3.20;2.58;;;13.90;99.90;;;;;;4934261;29;20031;-77
2021/05/09 05:19:48;;;;;;;3.40;2.50;;;13.90;99.90;;;;;;4934284;29;20032;-77
2021/05/09 05:22:14;;;;;;;3.67;2.55;;;14.00;99.90;;;;;;4934014;29;20059;-77
2021/05/09 05:24:40;;;;;;;3.53;2.47;;;14.00;99.90;;;;;;4934306;29;20035;-77
2021/05/09 05:27:06;;;;;;;2.47;2.28;;;14.00;99.90;;;;;;4913259;29;20036;-77
2021/05/09 05:29:31;;;;;;;3.83;2.38;;;14.10;99.90;;;;;;4898222;29;20432;-77
2021/05/09 05:31:57;;;;;;;2.65;2.13;;;14.10;99.90;;;;;;4898135;29;20033;-77
2021/05/09 05:34:23;;;;;;;4.75;2.28;;;14.20;99.90;;;;;;4915201;29;20058;-77
2021/05/09 05:36:49;;;;;;;8.50;2.33;;;14.20;99.90;;;;;;4915111;29;20028;-77
2021/05/09 05:39:14;;;;;;;6.05;2.15;;;14.30;99.90;;;;;;4915046;29;20024;-77
2021/05/09 05:41:40;;;;;;;4.63;1.83;;;14.40;99.90;;;;;;4915120;29;20028;-77
2021/05/09 05:44:07;;;;;;;3.17;2.00;;;14.40;99.90;;;;;;4914920;29;20027;-77
2021/05/09 05:46:33;;;;;;;3.17;2.30;;;14.50;99.90;;;;;;4915072;29;20032;-77
2021/05/09 05:48:59;;;;;;;1.90;1.80;;;14.60;99.90;;;;;;4914984;29;20103;-77
2021/05/09 05:51:25;;;;;;;1.80;1.70;;;14.60;99.90;;;;;;4915003;29;20036;-77
2021/05/09 05:53:56;;;;;;;3.78;2.17;;;14.70;99.90;;;;;;4897907;29;20056;-77
2021/05/09 05:56:22;;;;;;;3.58;2.03;;;14.80;99.90;;;;;;4897822;29;20052;-77
2021/05/09 05:58:48;;;;;;;3.25;2.90;;;14.90;99.90;;;;;;4914806;29;20024;-77
2021/05/09 06:01:14;;;;;;;8.63;2.67;;;14.90;99.90;;;;;;4918525;29;20059;-77
2021/05/09 06:03:39;;;;;;;2.90;2.63;;;15.00;99.90;;;;;;4918433;29;20479;-77
2021/05/09 06:06:05;;;;;;;3.55;2.22;;;15.00;99.90;;;;;;4918411;29;20044;-77
2021/05/09 06:08:31;;;;;;;3.45;2.08;;;15.10;99.90;;;;;;4918516;29;20048;-77
2021/05/09 06:10:56;;;;;;;7.57;2.50;;;15.10;99.90;;;;;;4918281;29;20150;-77
2021/05/09 06:13:23;;;;;;;2.33;2.13;;;15.20;99.90;;;;;;4918393;29;20032;-77
2021/05/09 06:15:52;;;;;;;4.68;2.17;;;15.30;99.90;;;;;;4901167;29;20056;-77
2021/05/09 06:18:18;;;;;;;1.75;1.65;;;15.30;99.90;;;;;;4918292;29;20103;-77
2021/05/09 06:20:43;;;;;;;9.38;2.30;;;15.40;99.90;;;;;;4901118;29;20115;-77
2021/05/09 06:23:10;;;;;;;3.40;1.77;;;15.40;99.90;;;;;;4918261;29;20020;-77
2021/05/09 06:25:37;;;;;;;3.15;2.15;;;15.50;99.90;;;;;;4900720;29;20024;-77
2021/05/09 06:28:03;;;;;;;3.10;2.15;;;15.60;99.90;;;;;;4918119;29;20028;-77
2021/05/09 06:30:29;;;;;;;2.08;1.98;;;15.70;99.90;;;;;;4918002;29;20169;-77
2021/05/09 06:32:55;;;;;;;4.60;2.10;;;15.70;99.90;;;;;;4901047;29;20128;-77
2021/05/09 06:35:21;;;;;;;3.53;1.73;;;15.80;99.80;;;;;;4917694;29;20056;-77
2021/05/09 06:37:50;;;;;;;4.78;1.42;;;15.90;98.30;;;;;;4918056;29;20075;-76
2021/05/09 06:40:17;;;;;;;1.02;1.02;;;15.90;98.30;;;;;;4900728;29;20535;-76
2021/05/09 06:42:43;;;;;;;2.78;1.30;;;16.00;97.90;;;;;;4917925;29;20079;-77
2021/05/09 06:45:20;;;;;;;1.88;1.00;;;16.00;97.80;;;;;;4917647;29;20044;-76
2021/05/09 06:47:45;;;;;;;0.88;0.88;;;16.10;97.70;;;;;;4917658;29;20511;-77
2021/05/09 06:50:11;;;;;;;3.72;1.30;;;16.20;97.30;;;;;;4917808;29;20111;-76
2021/05/09 06:52:37;;;;;;;0.90;0.70;;;16.30;97.70;;;;;;4917680;29;20373;-76
2021/05/09 06:55:04;;;;;;;1.35;1.00;;;16.30;98.10;;;;;;4917408;29;20035;-77
2021/05/09 06:57:29;;;;;;;3.85;1.33;;;16.40;98.00;;;;;;4917623;29;20024;-77
2021/05/09 06:59:55;;;;;;;3.22;1.40;;;16.40;96.90;;;;;;4917518;29;20185;-76
2021/05/09 07:02:21;;;;;;;1.13;0.88;;;16.50;96.80;;;;;;4917432;29;20059;-77
2021/05/09 07:04:46;;;;;;;1.17;1.08;;;16.50;97.50;;;;;;4917453;29;20103;-77
2021/05/09 07:07:12;;;;;;;2.08;1.27;;;16.60;97.70;;;;;;4900422;29;20036;-77
2021/05/09 07:09:38;;;;;;;1.73;1.25;;;16.70;96.20;;;;;;4917345;29;20484;-77
2021/05/09 07:12:05;;;;;;;2.97;1.30;;;16.70;96.70;;;;;;4917073;29;20032;-77
2021/05/09 07:14:31;;;;;;;4.22;1.55;;;16.70;97.40;;;;;;4927452;29;20032;-77
2021/05/09 07:16:58;;;;;;;1.48;1.23;;;16.80;97.30;;;;;;4936012;29;20035;-77
2021/05/09 07:19:23;;;;;;;1.73;1.23;;;16.90;97.30;;;;;;4918701;29;20024;-77
2021/05/09 07:21:54;;;;;;;3.53;1.20;;;16.90;97.30;;;;;;4921035;29;20028;-77
2021/05/09 07:24:20;;;;;;;1.63;1.53;;;16.90;97.10;;;;;;4923104;29;20075;-77
2021/05/09 07:26:47;;;;;;;4.68;1.65;;;17.00;96.50;;;;;;4908253;29;20628;-77
2021/05/09 07:29:13;;;;;;;3.08;1.13;;;17.00;96.60;;;;;;4917982;29;20081;-77
2021/05/09 07:31:41;;;;;;;4.90;1.50;;;17.00;96.60;;;;;;4918088;29;20028;-77
2021/05/09 07:34:10;;;;;;;3.30;1.53;;;17.00;96.40;;;;;;4930573;29;20111;-77
2021/05/09 07:36:38;;;;;;;3.67;1.83;;;17.10;96.40;;;;;;4917934;29;20492;-77
2021/05/09 07:39:05;;;;;;;1.92;1.20;;;17.10;96.50;;;;;;4907509;29;20027;-77
2021/05/09 07:41:31;;;;;;;4.20;1.50;;;17.30;96.50;;;;;;4918009;29;20104;-76
2021/05/09 07:43:56;;;;;;;4.72;1.65;;;17.30;96.10;;;;;;4925134;29;20448;-76
2021/05/09 07:46:22;;;;;;;2.53;1.60;;;17.30;95.70;;;;;;4927328;29;20110;-76
2021/05/09 07:48:48;;;;;;;1.25;1.15;;;17.30;96.40;;;;;;4911121;29;20395;-77
2021/05/09 07:51:13;;;;;;;2.70;1.40;;;17.40;96.60;;;;;;4927984;29;20039;-77
2021/05/09 07:53:39;;;;;;;2.63;1.17;;;17.40;96.70;;;;;;4927632;29;20436;-77
2021/05/09 07:56:05;;;;;;;1.27;0.98;;;17.40;97.00;;;;;;4935765;29;20036;-76
2021/05/09 07:58:32;;;;;;;4.68;1.02;;;17.50;96.30;;;;;;4925973;29;20371;-77
2021/05/09 08:01:02;;;;;;;1.63;1.50;;;17.50;96.60;;;;;;4912293;29;20103;-77
2021/05/09 08:03:27;;;;;;;2.60;1.13;;;17.60;97.20;;;;;;4917640;29;20032;-77
2021/05/09 08:05:53;;;;;;;2.25;1.52;;;17.60;95.80;;;;;;4917439;29;20035;-77
2021/05/09 08:08:21;;;;;;;2.08;1.70;;;17.60;95.50;;;;;;4917554;29;20024;-77
2021/05/09 08:10:47;;;;;;;2.70;0.85;;;17.60;95.50;;;;;;4917680;29;20028;-77
2021/05/09 08:13:13;;;;;;;3.35;1.33;;;17.60;96.10;;;;;;4917027;29;20035;-77
2021/05/09 08:15:39;;;;;;;3.92;1.20;;;17.80;96.30;;;;;;4916206;29;20032;-77
2021/05/09 08:18:05;;;;;;;1.05;1.05;;;17.80;96.00;;;;;;4934351;29;20103;-76
2021/05/09 08:20:31;;;;;;;3.60;1.00;;;17.80;95.60;;;;;;4930950;29;20035;-77
2021/05/09 08:22:57;;;;;;;6.40;0.80;;;17.80;95.80;;;;;;4935912;29;20016;-77
2021/05/09 08:25:23;;;;;;;1.20;1.10;;;17.80;94.80;;;;;;4936554;29;20027;-77
2021/05/09 08:27:49;;;;;;;2.20;0.93;;;17.80;95.50;;;;;;4921459;29;20042;-78
2021/05/09 08:30:17;;;;;;;3.22;1.20;;;17.80;95.40;;;;;;4916791;29;20039;-78
2021/05/09 08:32:43;;;;;;;1.52;1.02;;;17.90;95.20;;;;;;4914207;29;20087;-72
2021/05/09 08:35:11;;;;;;;3.58;1.17;;;18.00;94.10;;;;;;4916733;29;20035;-72
2021/05/09 08:37:38;;;;;;;1.67;1.00;;;18.00;93.60;;;;;;4918248;29;20022;-73
2021/05/09 08:40:06;;;;;;;1.45;1.35;;;18.00;93.50;;;;;;4914474;29;20560;-72
2021/05/09 08:42:32;;;;;;;2.90;1.10;;;18.10;93.80;;;;;;4917022;29;20111;-73
2021/05/09 08:44:58;;;;;;;1.90;1.20;;;18.20;94.10;;;;;;4916059;29;20441;-73
2021/05/09 08:47:36;;;;;;;1.63;1.20;;;18.30;93.80;;;;;;4917578;29;20020;-73
2021/05/09 08:50:09;;;;;;;2.17;0.85;;;18.40;93.10;;;;;;4915349;29;20110;-73
2021/05/09 08:52:36;;;;;;;2.08;0.88;;;18.40;92.60;;;;;;4925803;29;20492;-73
2021/05/09 08:55:07;;;;;;;5.13;0.75;;;18.40;92.60;;;;;;4916949;29;20075;-73
2021/05/09 08:57:33;;;;;;;1.10;1.05;;;18.40;92.30;;;;;;4916221;29;20048;-73
2021/05/09 08:59:59;;;;;;;1.63;1.52;;;18.50;93.80;;;;;;4903065;29;20559;-73
2021/05/09 09:02:26;;;;;;;1.38;1.38;;;18.50;93.40;;;;;;4919399;29;20040;-73
2021/05/09 09:04:54;;;;;;;4.15;1.52;;;18.50;92.80;;;;;;4924998;29;20119;-73
2021/05/09 09:07:20;;;;;;;1.05;0.85;;;18.50;91.40;;;;;;4933659;29;20051;-73
2021/05/09 09:09:48;;;;;;;3.22;1.10;;;18.50;91.30;;;;;;4924486;29;20392;-73
2021/05/09 09:12:16;;;;;;;1.13;0.80;;;18.60;92.90;;;;;;4917731;29;20028;-73
2021/05/09 09:14:52;;;;;;;1.42;0.98;;;18.60;92.90;;;;;;4919126;29;20028;-73
2021/05/09 09:17:18;;;;;;;1.65;1.00;;;18.70;92.90;;;;;;4914121;29;20027;-73
2021/05/09 09:20:18;;;;;;;1.00;0.90;;;18.90;93.10;;;;;;4924165;29;20084;-73
2021/05/09 09:22:59;;;;;;;1.40;1.05;;;19.00;92.00;;;;;;4930477;29;20123;-73
2021/05/09 09:25:31;;;;;;;1.88;1.00;;;19.00;91.80;;;;;;4925598;29;20110;-73
2021/05/09 09:27:57;;;;;;;1.55;1.02;;;19.10;91.00;;;;;;4922536;29;20501;-73
2021/05/09 09:30:25;;;;;;;2.55;1.05;;;19.10;91.50;;;;;;4918794;29;20109;-73
2021/05/09 09:33:08;;;;;;;0.90;0.90;;;19.20;91.30;;;;;;4914922;29;20024;-73
2021/05/09 09:35:35;;;;;;;2.70;1.05;;;19.30;90.10;;;;;;4922639;29;20511;-73
2021/05/09 09:38:02;;;;;;;2.38;1.15;;;19.30;90.20;;;;;;4929086;29;20016;-72
2021/05/09 09:40:28;;;;;;;0.98;0.98;;;19.40;90.90;;;;;;4927167;29;20379;-73
2021/05/09 09:42:54;;;;;;;1.00;0.90;;;19.50;90.80;;;;;;4928191;29;20054;-73
2021/05/09 09:45:24;;;;;;;2.80;1.10;;;19.60;91.10;;;;;;4929402;29;20103;-72
2021/05/09 09:47:51;;;;;;;1.10;1.10;;;19.50;90.30;;;;;;4925157;29;20092;-73
2021/05/09 09:50:52;;;;;;;4.10;1.20;;;19.60;89.50;;;;;;4926527;29;20092;-72
2021/05/09 09:53:38;;;;;;;1.58;0.85;;;19.60;86.70;;;;;;4868090;29;20025;-74
2021/05/09 09:56:15;;;;;;;1.63;1.00;;;19.60;89.80;;;;;;4919800;29;20328;-74
2021/05/09 09:58:49;;;;;;;0.73;0.73;;;19.60;89.00;;;;;;4922350;29;20078;-74
2021/05/09 10:01:35;;;;;;;1.13;1.10;;;19.70;89.40;;;;;;4922389;29;20052;-74
2021/05/09 10:04:06;;;;;;;3.60;1.05;;;19.80;88.40;;;;;;4916148;29;20429;-73
2021/05/09 10:06:32;;;;;;;1.13;1.10;;;19.80;89.40;;;;;;4922531;29;20027;-74
2021/05/09 10:08:59;;;;;;;1.90;1.00;;;20.00;87.30;;;;;;4922565;29;20045;-74
2021/05/09 10:11:29;;;;;;;2.65;1.20;;;20.10;85.70;;;;;;4915556;29;20461;-74
2021/05/09 10:13:56;;;;;;;2.60;0.93;;;20.10;83.50;;;;;;4923613;29;20576;-73
2021/05/09 10:16:24;;;;;;;5.88;1.05;;;20.00;85.40;;;;;;4920624;29;20149;-73
2021/05/09 10:18:56;;;;;;;2.45;1.15;;;20.00;84.60;;;;;;4900077;29;20672;-73
2021/05/09 10:21:36;;;;;;;6.03;1.10;;;20.00;79.20;;;;;;4916798;29;20115;-73
2021/05/09 10:24:16;;;;;;;3.10;1.20;;;19.90;81.40;;;;;;4910898;29;20115;-73
2021/05/09 10:27:10;;;;;;;1.63;1.17;;;20.10;83.10;;;;;;4896242;29;20472;-73
2021/05/09 10:29:37;;;;;;;1.05;0.98;;;20.20;83.50;;;;;;4908531;29;20051;-73
2021/05/09 10:32:21;;;;;;;5.97;0.90;;;20.20;81.80;;;;;;4922593;29;20023;-73
2021/05/09 10:34:56;;;;;;;1.35;1.25;;;20.60;81.70;;;;;;4920501;29;20110;-73
2021/05/09 10:37:51;;;;;;;1.23;1.00;;;20.70;82.70;;;;;;4914676;29;20032;-73
2021/05/09 10:40:27;;;;;;;1.60;0.98;;;20.90;79.40;;;;;;4899591;29;20165;-73
2021/05/09 10:43:02;;;;;;;1.65;1.08;;;21.00;80.10;;;;;;4922277;29;20039;-72
2021/05/09 10:45:29;;;;;;;1.48;0.73;;;21.00;71.50;;;;;;4896954;29;20044;-73
2021/05/09 10:48:24;;;;;;;0.75;0.63;;;21.00;74.60;;;;;;4904934;29;20445;-72
2021/05/09 10:51:02;;;;;;;2.05;1.05;;;21.10;73.20;;;;;;4902711;29;20484;-72
2021/05/09 10:53:34;;;;;;;1.85;0.98;;;21.10;74.60;;;;;;4925100;29;20036;-72
2021/05/09 10:56:19;;;;;;;2.15;1.05;;;21.20;76.40;;;;;;4917503;29;20326;-74
2021/05/09 10:58:50;;;;;;;2.38;1.10;;;21.50;74.60;;;;;;4923342;29;20027;-73
2021/05/09 11:01:15;;;;;;;3.58;1.75;;;21.60;75.50;;;;;;4913701;29;20040;-73
2021/05/09 11:03:41;;;;;;;1.58;1.35;;;21.80;76.80;;;;;;4912585;29;20038;-73
2021/05/09 11:06:21;;;;;;;1.88;1.25;;;21.90;74.10;;;;;;4922481;29;20417;-73
2021/05/09 11:08:56;;;;;;;3.70;1.40;;;21.90;73.10;;;;;;4920982;29;20491;-73
2021/05/09 11:11:24;;;;;;;2.17;1.08;;;21.90;71.60;;;;;;4896583;29;20498;-73
2021/05/09 11:14:03;;;;;;;3.78;1.30;;;22.00;72.30;;;;;;4907651;29;20028;-73
2021/05/09 11:16:39;;;;;;;2.03;1.00;;;22.10;71.30;;;;;;4917853;29;20444;-73
2021/05/09 11:19:06;;;;;;;2.95;1.20;;;22.20;73.10;;;;;;4914493;29;20036;-73
2021/05/09 11:21:34;;;;;;;1.33;1.23;;;22.30;72.50;;;;;;4921221;29;20107;-74
2021/05/09 11:24:02;;;;;;;1.45;1.30;;;22.30;69.30;;;;;;4914611;29;20023;-73
2021/05/09 11:26:36;;;;;;;1.75;1.33;;;22.30;68.80;;;;;;4914495;29;20036;-73
2021/05/09 11:29:11;;;;;;;1.88;1.42;;;22.30;68.30;;;;;;4909008;29;20039;-73
2021/05/09 11:31:42;;;;;;;5.95;1.50;;;22.20;65.40;;;;;;4897381;29;20128;-73
2021/05/09 11:34:09;;;;;;;4.25;1.58;;;22.30;65.90;;;;;;4909696;29;20024;-73
2021/05/09 11:36:37;;;;;;;1.77;1.02;;;22.30;68.30;;;;;;4908645;29;20036;-73
2021/05/09 11:39:28;;;;;;;0.80;0.80;;;22.40;66.90;;;;;;4927107;29;20153;-74
2021/05/09 11:42:06;;;;;;;1.15;1.05;;;22.60;63.50;;;;;;4914069;29;20058;-73
2021/05/09 11:44:52;;;;;;;1.40;1.30;;;22.70;66.30;;;;;;4913530;29;20407;-73
2021/05/09 11:47:23;;;;;;;2.45;1.83;;;22.80;66.20;;;;;;4903242;29;20039;-77
2021/05/09 11:49:57;;;;;;;1.70;1.10;;;22.90;64.90;;;;;;4913626;29;20476;-76
2021/05/09 11:52:25;;;;;;;3.10;0.80;;;23.10;68.00;;;;;;4913965;29;20024;-76
2021/05/09 11:54:53;;;;;;;3.60;0.98;;;23.30;66.00;;;;;;4913374;29;20066;-76
2021/05/09 11:57:21;;;;;;;11.10;1.48;;;23.50;60.30;;;;;;4902335;29;20029;-76
2021/05/09 11:59:57;;;;;;;3.05;1.10;;;23.50;61.10;;;;;;4912660;29;20032;-76
2021/05/09 12:02:27;;;;;;;2.30;1.00;;;23.50;58.70;;;;;;4912126;29;20040;-77
2021/05/09 12:05:14;;;;;;;2.20;1.08;;;23.50;58.60;;;;;;4911499;29;20437;-77
2021/05/09 12:07:47;;;;;;;1.35;0.82;;;23.70;60.60;;;;;;4908377;29;20035;-76
2021/05/09 12:10:17;;;;;;;1.05;1.00;;;23.70;58.10;;;;;;4927345;29;20056;-76
2021/05/09 12:12:45;;;;;;;2.72;1.10;;;23.80;57.80;;;;;;4924607;29;20038;-76
2021/05/09 12:15:16;;;;;;;0.90;0.85;;;24.00;60.50;;;;;;4917446;29;20032;-75
2021/05/09 12:17:54;;;;;;;2.30;1.33;;;24.10;59.00;;;;;;4916227;29;20424;-77
2021/05/09 12:20:49;;;;;;;4.22;1.50;;;24.20;58.70;;;;;;4915720;29;20264;-76
2021/05/09 12:23:18;;;;;;;1.67;1.33;;;24.40;59.90;;;;;;4900089;29;20036;-77
2021/05/09 12:25:49;;;;;;;2.38;1.05;;;24.30;58.50;;;;;;4915948;29;20040;-73
2021/05/09 12:28:19;;;;;;;2.15;1.10;;;24.40;59.60;;;;;;4898126;29;20036;-73
2021/05/09 12:30:46;;;;;;;1.15;1.05;;;24.50;58.90;;;;;;4899032;29;20032;-73
2021/05/09 12:33:24;;;;;;;2.17;1.05;;;24.60;57.90;;;;;;4916044;29;20039;-73
2021/05/09 12:35:50;;;;;;;0.90;0.90;;;24.60;56.80;;;;;;4898499;29;20123;-73
2021/05/09 12:38:26;;;;;;;2.33;0.85;;;24.70;55.70;;;;;;4915935;29;20047;-73
2021/05/09 12:41:10;;;;;;;1.17;1.10;;;24.90;58.20;;;;;;4915795;29;20496;-73
2021/05/09 12:43:47;;;;;;;6.18;1.35;;;25.20;58.20;;;;;;4915898;29;20048;-73
2021/05/09 12:46:32;;;;;;;1.40;1.15;;;25.00;55.30;;;;;;4915314;29;20521;-73
2021/05/09 12:49:14;;;;;;;4.07;1.30;;;25.10;57.50;;;;;;4915631;29;20035;-73
2021/05/09 12:51:56;;;;;;;1.33;1.23;;;25.20;57.70;;;;;;4915728;29;20028;-73